Time;durP1;ratioP1;P1;durP2;ratioP2;P2;SDS_P1;SDS_P2;PMS_P1;PMS_P2;Temp;Humidity;BMP_temperature;BMP_pressure;BME280_temperature;BME280_humidity;BME280_pressure;Samples;Min_cycle;Max_cycle;Signal;HPM_P1;HPM_P2
2021/06/09 00:02:08;;;;;;;15.27;13.68;;;18.70;99.90;;;;;;10462749;28;20037;-62
2021/06/09 00:07:11;;;;;;;16.92;14.88;;;18.60;99.90;;;;;;10461936;28;20512;-62
2021/06/09 00:12:13;;;;;;;14.20;12.80;;;18.60;99.90;;;;;;10462418;28;20053;-62
2021/06/09 00:17:15;;;;;;;18.70;15.82;;;18.50;99.90;;;;;;10460338;28;20119;-62
2021/06/09 00:22:17;;;;;;;16.70;14.75;;;18.40;99.90;;;;;;10461493;28;20473;-61
2021/06/09 00:27:19;;;;;;;17.08;15.27;;;18.30;99.90;;;;;;10461473;28;20044;-62
2021/06/09 00:32:21;;;;;;;19.60;17.50;;;18.40;99.90;;;;;;10461216;28;20131;-62
2021/06/09 00:37:23;;;;;;;19.10;16.83;;;18.20;99.90;;;;;;10460995;28;20055;-62
2021/06/09 00:42:25;;;;;;;18.35;16.45;;;18.20;99.90;;;;;;10460766;28;20048;-62
2021/06/09 00:47:27;;;;;;;20.33;17.75;;;18.20;99.90;;;;;;10460732;28;20044;-62
2021/06/09 00:52:30;;;;;;;20.50;16.65;;;18.10;99.90;;;;;;10459844;28;20052;-62
2021/06/09 00:57:33;;;;;;;18.95;16.95;;;18.20;99.90;;;;;;10460036;28;20504;-62
2021/06/09 01:02:35;;;;;;;20.08;16.70;;;18.10;99.90;;;;;;10460009;28;20052;-62
2021/06/09 01:07:38;;;;;;;22.23;19.58;;;18.10;99.90;;;;;;10459792;28;20469;-62
2021/06/09 01:12:41;;;;;;;22.25;20.05;;;18.00;99.90;;;;;;10459702;28;20056;-62
2021/06/09 01:17:43;;;;;;;24.00;17.95;;;17.90;99.90;;;;;;10458219;28;20214;-62
2021/06/09 01:22:45;;;;;;;22.88;19.88;;;17.90;99.90;;;;;;10459229;28;20076;-62
2021/06/09 01:27:49;;;;;;;20.60;18.17;;;17.80;99.90;;;;;;10458912;28;20496;-62
2021/06/09 01:32:53;;;;;;;22.77;17.80;;;17.80;99.90;;;;;;10459444;28;20058;-62
2021/06/09 01:37:55;;;;;;;20.25;18.15;;;17.70;99.90;;;;;;10458866;28;20044;-62
2021/06/09 01:42:58;;;;;;;23.38;20.88;;;17.70;99.90;;;;;;10458382;28;20045;-62
2021/06/09 01:48:00;;;;;;;26.25;22.23;;;17.60;99.90;;;;;;10458120;28;20045;-62
2021/06/09 01:53:04;;;;;;;23.52;20.83;;;17.60;99.90;;;;;;10457993;28;20424;-62
2021/06/09 01:58:11;;;;;;;25.20;22.52;;;17.60;99.90;;;;;;10457692;28;20041;-61
2021/06/09 02:03:15;;;;;;;24.63;22.08;;;17.50;99.90;;;;;;10455831;28;20044;-62
2021/06/09 02:08:17;;;;;;;25.10;22.40;;;17.50;99.90;;;;;;10457874;28;20045;-62
2021/06/09 02:13:20;;;;;;;31.42;24.73;;;17.40;99.90;;;;;;10457251;28;20060;-62
2021/06/09 02:18:28;;;;;;;24.70;22.10;;;17.40;99.90;;;;;;10456822;28;20374;-62
2021/06/09 02:23:34;;;;;;;28.13;23.20;;;17.30;99.90;;;;;;10456973;28;20048;-62
2021/06/09 02:28:36;;;;;;;24.88;22.02;;;17.30;99.90;;;;;;10456918;28;20499;-62
2021/06/09 02:33:38;;;;;;;26.02;23.25;;;17.30;99.90;;;;;;10455273;28;20052;-62
2021/06/09 02:38:41;;;;;;;31.90;26.88;;;17.20;99.90;;;;;;10455798;28;20052;-61
2021/06/09 02:43:45;;;;;;;27.63;24.33;;;17.20;99.90;;;;;;10456433;28;20049;-61
2021/06/09 02:48:55;;;;;;;27.45;24.48;;;17.20;99.90;;;;;;10456741;28;20049;-61
2021/06/09 02:54:16;;;;;;;29.33;26.03;;;17.10;99.90;;;;;;10456524;28;20053;-61
2021/06/09 02:59:49;;;;;;;27.17;24.10;;;17.10;99.90;;;;;;10455555;28;20044;-61
2021/06/09 03:05:10;;;;;;;35.35;27.00;;;17.00;99.90;;;;;;10455938;28;20482;-61
2021/06/09 03:10:50;;;;;;;27.17;24.13;;;17.00;99.90;;;;;;10456089;28;20052;-62
2021/06/09 03:16:02;;;;;;;31.15;26.83;;;16.90;99.90;;;;;;10455276;28;20123;-61
2021/06/09 03:21:29;;;;;;;29.75;25.77;;;16.90;99.90;;;;;;10462934;28;20087;-62
2021/06/09 03:26:59;;;;;;;31.40;28.00;;;16.90;99.90;;;;;;10462691;28;20051;-62
2021/06/09 03:32:09;;;;;;;33.08;27.38;;;16.90;99.90;;;;;;10462952;28;20055;-62
2021/06/09 03:37:18;;;;;;;33.55;27.15;;;16.80;99.90;;;;;;10463776;28;20077;-62
2021/06/09 03:42:21;;;;;;;29.88;26.63;;;16.90;99.90;;;;;;10462803;28;20037;-62
2021/06/09 03:47:23;;;;;;;32.67;28.45;;;16.90;99.90;;;;;;10462789;28;20044;-62
2021/06/09 03:52:25;;;;;;;31.15;27.88;;;16.80;99.90;;;;;;10461665;28;20051;-62
2021/06/09 03:57:32;;;;;;;35.13;29.60;;;16.80;99.90;;;;;;10461482;28;20044;-62
2021/06/09 04:02:36;;;;;;;42.47;30.45;;;16.80;99.90;;;;;;10461438;28;20037;-62
2021/06/09 04:07:39;;;;;;;40.03;34.10;;;16.80;99.90;;;;;;10461161;28;20060;-62
2021/06/09 04:12:42;;;;;;;35.08;30.13;;;16.90;99.90;;;;;;10462004;28;20045;-62
2021/06/09 04:17:48;;;;;;;31.85;27.65;;;16.80;99.90;;;;;;10460256;28;20489;-62
2021/06/09 04:22:52;;;;;;;33.20;29.45;;;16.80;99.90;;;;;;10460704;28;20041;-62
2021/06/09 04:27:54;;;;;;;30.25;26.90;;;16.90;99.90;;;;;;10460885;28;20053;-62
2021/06/09 04:33:02;;;;;;;34.05;28.92;;;16.80;99.90;;;;;;10459896;28;20045;-62
2021/06/09 04:38:08;;;;;;;36.60;32.03;;;16.90;99.90;;;;;;10461178;28;20076;-62
2021/06/09 04:43:12;;;;;;;36.20;32.22;;;16.90;99.90;;;;;;10459922;28;20044;-62
2021/06/09 04:48:17;;;;;;;35.90;30.77;;;16.80;99.90;;;;;;10460808;28;20048;-62
2021/06/09 04:53:20;;;;;;;33.25;29.00;;;17.00;99.90;;;;;;10460043;28;20480;-62
2021/06/09 04:58:25;;;;;;;30.75;27.42;;;17.00;99.90;;;;;;10460407;28;20041;-62
2021/06/09 05:03:27;;;;;;;33.22;28.77;;;17.10;99.90;;;;;;10459739;28;20397;-62
2021/06/09 05:08:29;;;;;;;30.55;26.92;;;17.20;99.90;;;;;;10459777;28;20492;-62
2021/06/09 05:13:34;;;;;;;30.98;26.48;;;17.30;99.90;;;;;;10459661;28;20052;-62
2021/06/09 05:18:45;;;;;;;34.33;30.63;;;17.30;99.90;;;;;;10458203;28;20533;-62
2021/06/09 05:23:52;;;;;;;;;;;17.40;99.90;;;;;;10458532;28;20064;-63
2021/06/09 05:29:01;;;;;;;56.58;34.70;;;17.50;99.90;;;;;;10458086;28;19921;-62
2021/06/09 05:34:04;;;;;;;63.78;34.60;;;17.60;99.90;;;;;;10457702;28;20052;-62
2021/06/09 05:39:07;;;;;;;57.95;30.63;;;17.60;99.90;;;;;;10458548;28;20045;-62
2021/06/09 05:44:14;;;;;;;46.65;30.85;;;17.80;99.90;;;;;;10456971;28;20389;-62
2021/06/09 05:49:22;;;;;;;46.73;32.90;;;17.90;99.90;;;;;;10459030;28;20055;-62
2021/06/09 05:54:25;;;;;;;37.13;31.00;;;17.90;99.90;;;;;;10458405;28;20049;-62
2021/06/09 05:59:27;;;;;;;33.38;29.85;;;18.10;99.90;;;;;;10456702;28;20041;-62
2021/06/09 06:04:31;;;;;;;33.25;29.63;;;18.20;99.90;;;;;;10457313;28;20048;-62
2021/06/09 06:09:33;;;;;;;40.35;35.63;;;18.30;99.90;;;;;;10457003;28;20052;-62
2021/06/09 06:14:35;;;;;;;38.33;34.15;;;18.50;99.90;;;;;;10456063;28;20061;-62
2021/06/09 06:19:38;;;;;;;43.97;39.25;;;18.60;99.90;;;;;;10456357;28;20048;-62
2021/06/09 06:24:43;;;;;;;38.35;34.10;;;18.80;99.90;;;;;;10457115;28;20041;-62
2021/06/09 06:29:46;;;;;;;42.92;36.00;;;18.80;99.90;;;;;;10456997;28;20052;-62
2021/06/09 06:34:51;;;;;;;42.05;35.50;;;19.10;99.90;;;;;;10456710;28;20044;-62
2021/06/09 06:39:54;;;;;;;41.95;37.65;;;19.30;99.90;;;;;;10456130;28;20036;-62
2021/06/09 06:44:56;;;;;;;39.58;35.45;;;19.40;99.90;;;;;;10455246;28;20044;-62
2021/06/09 06:49:58;;;;;;;42.85;38.15;;;19.50;99.90;;;;;;10466181;28;20044;-63
2021/06/09 06:55:04;;;;;;;41.33;37.05;;;19.60;99.90;;;;;;10470320;28;20049;-62
2021/06/09 07:00:16;;;;;;;42.30;37.90;;;19.80;99.90;;;;;;10470492;28;20072;-63
2021/06/09 07:05:20;;;;;;;42.97;38.55;;;19.90;99.90;;;;;;10470072;28;20056;-62
2021/06/09 07:10:23;;;;;;;39.17;35.22;;;20.10;99.90;;;;;;10470031;28;20048;-63
2021/06/09 07:15:27;;;;;;;42.45;38.13;;;20.30;99.90;;;;;;10469333;28;20044;-62
2021/06/09 07:20:30;;;;;;;39.42;35.28;;;20.70;99.90;;;;;;10469745;28;20052;-62
2021/06/09 07:25:32;;;;;;;40.90;36.58;;;20.90;99.90;;;;;;10470243;28;20120;-63
2021/06/09 07:30:37;;;;;;;35.00;31.35;;;21.30;99.90;;;;;;10469722;28;20128;-63
2021/06/09 07:35:39;;;;;;;37.70;33.63;;;21.40;99.90;;;;;;10468635;28;20123;-63
2021/06/09 07:40:44;;;;;;;25.83;22.38;;;21.70;99.90;;;;;;10468196;28;20055;-62
2021/06/09 07:45:48;;;;;;;26.38;23.70;;;22.00;99.90;;;;;;10467906;28;20052;-63
2021/06/09 07:50:59;;;;;;;20.80;17.83;;;22.10;99.90;;;;;;10468580;28;20072;-63
2021/06/09 07:56:02;;;;;;;22.00;18.27;;;22.40;99.90;;;;;;10469163;28;20049;-63
2021/06/09 08:01:05;;;;;;;18.17;16.38;;;22.30;99.90;;;;;;10463426;28;20058;-62
2021/06/09 08:06:07;;;;;;;17.52;15.82;;;22.40;99.90;;;;;;10462413;28;20049;-63
2021/06/09 08:11:11;;;;;;;18.92;17.08;;;22.50;99.90;;;;;;10460877;28;20044;-63
2021/06/09 08:16:20;;;;;;;25.98;23.33;;;22.40;99.90;;;;;;10462315;28;20114;-62
2021/06/09 08:21:25;;;;;;;25.50;20.83;;;22.20;99.90;;;;;;10461589;28;20068;-63
2021/06/09 08:26:27;;;;;;;20.52;18.45;;;22.40;99.90;;;;;;10462067;28;20048;-63
2021/06/09 08:31:32;;;;;;;20.65;18.63;;;22.50;99.90;;;;;;10461403;28;20041;-62
2021/06/09 08:36:35;;;;;;;21.73;19.08;;;22.80;99.90;;;;;;10459782;28;20071;-63
2021/06/09 08:41:40;;;;;;;27.67;22.55;;;23.40;99.90;;;;;;10461136;28;20037;-63
2021/06/09 08:46:42;;;;;;;20.23;18.13;;;23.70;99.30;;;;;;10460956;28;20045;-63
2021/06/09 08:51:45;;;;;;;21.50;19.42;;;24.00;99.00;;;;;;10460535;28;20052;-63
2021/06/09 08:56:50;;;;;;;21.20;18.98;;;24.50;99.00;;;;;;10459987;28;20481;-62
2021/06/09 09:01:52;;;;;;;16.70;15.00;;;24.20;98.10;;;;;;10460200;28;20457;-63
2021/06/09 09:06:54;;;;;;;23.98;21.52;;;23.90;99.00;;;;;;10460021;28;20051;-63
2021/06/09 09:11:57;;;;;;;25.75;18.20;;;24.00;97.40;;;;;;10458223;28;20477;-63
2021/06/09 09:17:10;;;;;;;18.92;17.05;;;24.60;98.40;;;;;;10459368;28;20120;-63
2021/06/09 09:22:34;;;;;;;20.52;18.30;;;24.50;96.70;;;;;;10459274;28;20053;-63
2021/06/09 09:27:37;;;;;;;19.75;17.25;;;24.30;97.30;;;;;;10459007;28;20099;-62
2021/06/09 09:33:08;;;;;;;16.20;14.50;;;24.30;95.80;;;;;;10458210;28;20102;-62
2021/06/09 09:38:14;;;;;;;16.98;15.27;;;24.80;96.00;;;;;;10458447;28;20053;-62
2021/06/09 09:43:16;;;;;;;16.50;14.80;;;24.60;94.80;;;;;;10458995;28;20037;-63
2021/06/09 09:48:19;;;;;;;16.92;15.20;;;24.80;94.50;;;;;;10457213;28;20052;-62
2021/06/09 09:53:31;;;;;;;18.85;16.85;;;25.20;94.80;;;;;;10456758;28;20131;-62
2021/06/09 09:58:50;;;;;;;17.35;15.60;;;25.00;94.00;;;;;;10458008;28;20400;-62
2021/06/09 10:03:56;;;;;;;15.93;14.32;;;25.10;95.20;;;;;;10457686;28;20393;-62
2021/06/09 10:09:37;;;;;;;18.17;14.63;;;25.10;95.40;;;;;;10457571;28;20492;-63
2021/06/09 10:14:47;;;;;;;13.35;11.98;;;25.40;95.70;;;;;;10457509;28;20052;-62
2021/06/09 10:19:58;;;;;;;11.75;10.75;;;26.10;93.50;;;;;;10457378;28;20051;-62
2021/06/09 10:25:07;;;;;;;11.32;8.50;;;26.40;88.60;;;;;;10456660;28;20045;-63
2021/06/09 10:30:18;;;;;;;17.48;13.90;;;27.10;90.60;;;;;;10456881;28;20045;-62
2021/06/09 10:35:25;;;;;;;11.90;10.43;;;27.00;90.10;;;;;;10457016;28;20056;-63
2021/06/09 10:40:30;;;;;;;14.43;11.60;;;27.20;88.60;;;;;;10456730;28;20072;-62
2021/06/09 10:45:36;;;;;;;10.30;9.38;;;27.10;89.00;;;;;;10454887;28;20374;-62
2021/06/09 10:50:40;;;;;;;17.10;10.07;;;27.70;90.40;;;;;;10456516;28;20124;-63
2021/06/09 10:55:42;;;;;;;11.63;10.48;;;27.40;90.30;;;;;;10455222;28;20049;-63
2021/06/09 11:00:44;;;;;;;10.10;9.23;;;27.10;88.10;;;;;;10455459;28;20049;-63
2021/06/09 11:05:47;;;;;;;11.73;10.15;;;27.10;93.40;;;;;;10455999;28;20037;-62
2021/06/09 11:10:49;;;;;;;9.70;8.80;;;27.60;84.00;;;;;;10456617;28;20051;-63
2021/06/09 11:16:04;;;;;;;12.85;9.35;;;27.60;87.40;;;;;;10455583;28;20049;-63
2021/06/09 11:21:09;;;;;;;10.38;9.38;;;27.80;83.60;;;;;;10455295;28;20121;-63
2021/06/09 11:26:29;;;;;;;17.13;9.98;;;28.40;84.60;;;;;;10455716;28;20120;-63
2021/06/09 11:31:31;;;;;;;11.00;9.90;;;28.20;89.50;;;;;;10455766;28;20465;-62
2021/06/09 11:36:43;;;;;;;12.55;8.75;;;28.50;84.00;;;;;;10461666;28;20048;-63
2021/06/09 11:41:47;;;;;;;11.70;9.60;;;27.90;90.10;;;;;;10464335;28;20048;-62
2021/06/09 11:46:49;;;;;;;14.20;12.88;;;28.60;81.90;;;;;;10463016;28;20041;-63
2021/06/09 11:52:02;;;;;;;9.18;8.30;;;28.60;80.10;;;;;;10462871;28;20374;-61
2021/06/09 11:57:22;;;;;;;9.65;8.80;;;28.90;82.60;;;;;;10462884;28;20045;-65
2021/06/09 12:02:26;;;;;;;15.60;12.68;;;29.10;84.50;;;;;;10462538;28;20381;-65
2021/06/09 12:07:34;;;;;;;11.82;10.68;;;28.60;82.00;;;;;;10462469;28;20077;-66
2021/06/09 12:12:37;;;;;;;11.63;9.85;;;28.50;82.50;;;;;;10461637;28;20128;-66
2021/06/09 12:17:43;;;;;;;11.13;9.75;;;28.90;83.70;;;;;;10461800;28;20072;-66
2021/06/09 12:22:51;;;;;;;16.02;12.48;;;29.10;86.80;;;;;;10461648;28;20067;-66
2021/06/09 12:28:03;;;;;;;12.30;10.57;;;29.40;80.20;;;;;;10462154;28;20044;-65
2021/06/09 12:33:06;;;;;;;8.63;7.85;;;29.60;83.30;;;;;;10461363;28;20385;-65
2021/06/09 12:38:10;;;;;;;9.70;8.27;;;30.00;81.70;;;;;;10461130;28;20055;-65
2021/06/09 12:43:14;;;;;;;8.63;7.45;;;29.70;83.80;;;;;;10459952;28;20048;-66
2021/06/09 12:48:20;;;;;;;10.40;8.40;;;29.60;84.20;;;;;;10459751;28;20044;-65
2021/06/09 12:53:29;;;;;;;10.68;9.20;;;29.90;81.30;;;;;;10460947;28;20041;-65
2021/06/09 12:58:32;;;;;;;8.50;7.70;;;29.60;81.00;;;;;;10461276;28;20045;-66
2021/06/09 13:03:40;;;;;;;8.15;5.65;;;29.40;78.00;;;;;;10460192;28;20071;-65
2021/06/09 13:08:55;;;;;;;10.48;9.38;;;30.10;80.10;;;;;;10501358;28;20040;-66
2021/06/09 13:14:06;;;;;;;5.95;5.32;;;30.30;76.20;;;;;;10501339;28;20046;-66
2021/06/09 13:19:15;;;;;;;10.25;7.90;;;30.00;80.20;;;;;;10501021;28;20063;-67
2021/06/09 13:24:32;;;;;;;8.60;7.72;;;29.80;72.00;;;;;;10500838;28;20055;-66
2021/06/09 13:29:47;;;;;;;8.50;7.65;;;30.00;75.60;;;;;;10500300;28;20048;-65
2021/06/09 13:34:58;;;;;;;10.50;7.60;;;30.00;75.80;;;;;;10499016;28;20393;-66
2021/06/09 13:40:19;;;;;;;9.75;8.82;;;30.10;70.40;;;;;;10500375;28;20090;-67
2021/06/09 13:45:25;;;;;;;13.05;7.97;;;30.70;73.70;;;;;;10500065;28;20048;-66
2021/06/09 13:50:27;;;;;;;8.80;7.90;;;30.70;72.00;;;;;;10499499;28;20048;-66
2021/06/09 13:55:37;;;;;;;12.60;11.43;;;30.10;75.00;;;;;;10499220;28;20503;-64
2021/06/09 14:00:39;;;;;;;;;;;30.10;76.30;;;;;;10499457;28;20472;-64
2021/06/09 14:05:41;;;;;;;15.10;10.95;;;30.00;70.30;;;;;;10499026;28;19916;-64
2021/06/09 14:10:48;;;;;;;11.93;10.57;;;30.30;74.10;;;;;;10499116;28;20044;-64
2021/06/09 14:15:55;;;;;;;17.67;15.90;;;30.10;77.20;;;;;;10499050;28;20051;-65
2021/06/09 14:20:59;;;;;;;15.05;13.50;;;29.40;69.40;;;;;;10498634;28;20384;-64
2021/06/09 14:26:05;;;;;;;15.23;10.93;;;30.00;74.50;;;;;;10498221;28;20515;-64
2021/06/09 14:31:22;;;;;;;14.38;12.15;;;30.30;72.60;;;;;;10498394;28;20468;-64
2021/06/09 14:41:41;;;;;;;14.13;12.63;;;30.20;76.50;;;;;;10480858;28;20047;-64
2021/06/09 14:52:44;;;;;;;13.98;12.63;;;30.10;77.50;;;;;;10498066;28;20045;-64
2021/06/09 14:57:47;;;;;;;15.80;12.50;;;29.80;70.70;;;;;;10458038;28;20040;-64
2021/06/09 15:02:49;;;;;;;13.10;11.25;;;29.50;71.10;;;;;;10497579;28;20127;-64
2021/06/09 15:07:52;;;;;;;12.90;11.70;;;29.40;71.10;;;;;;10497923;28;20040;-64
2021/06/09 15:12:56;;;;;;;13.40;9.98;;;29.50;75.30;;;;;;10506057;28;20045;-64
2021/06/09 15:17:59;;;;;;;13.48;11.70;;;29.70;73.70;;;;;;10506322;28;20051;-64
2021/06/09 15:23:08;;;;;;;10.02;9.07;;;29.70;71.70;;;;;;10505835;28;20123;-64
2021/06/09 15:28:10;;;;;;;13.32;11.10;;;29.90;75.40;;;;;;10505032;28;20049;-64
2021/06/09 15:33:12;;;;;;;14.63;11.45;;;30.00;71.70;;;;;;10505473;28;20123;-64
2021/06/09 15:38:15;;;;;;;11.38;10.13;;;29.90;71.50;;;;;;10504807;28;20048;-64
2021/06/09 15:43:17;;;;;;;11.77;10.73;;;29.60;71.50;;;;;;10505291;28;20048;-64
2021/06/09 15:48:19;;;;;;;14.57;11.65;;;29.40;72.60;;;;;;10504765;28;20040;-64
2021/06/09 15:53:21;;;;;;;12.27;11.10;;;28.70;73.60;;;;;;10504420;28;20047;-64
2021/06/09 15:58:22;;;;;;;12.93;9.98;;;28.50;73.20;;;;;;10504458;28;20044;-64
2021/06/09 16:03:26;;;;;;;12.57;11.43;;;28.40;74.40;;;;;;10503894;28;20447;-64
2021/06/09 16:08:28;;;;;;;12.23;8.93;;;28.30;74.10;;;;;;10503870;28;20051;-64
2021/06/09 16:13:30;;;;;;;11.15;9.98;;;28.40;77.20;;;;;;10503443;28;20041;-64
2021/06/09 16:18:32;;;;;;;13.38;10.00;;;28.30;73.30;;;;;;10503172;28;20049;-64
2021/06/09 16:23:37;;;;;;;9.57;7.50;;;28.10;75.40;;;;;;10500785;28;20055;-64
2021/06/09 16:28:39;;;;;;;9.88;8.13;;;28.30;75.40;;;;;;10502880;28;20365;-64
2021/06/09 16:33:41;;;;;;;7.90;7.13;;;28.10;74.00;;;;;;10503222;28;20051;-64
2021/06/09 16:38:43;;;;;;;10.00;6.63;;;28.30;74.90;;;;;;10502555;28;20044;-64
2021/06/09 16:43:45;;;;;;;7.28;6.68;;;28.20;73.50;;;;;;10502693;28;20055;-64
2021/06/09 16:48:47;;;;;;;6.70;6.10;;;28.10;74.40;;;;;;10501878;28;20040;-64
2021/06/09 16:53:55;;;;;;;7.10;6.50;;;28.10;73.40;;;;;;10501933;28;20043;-64
2021/06/09 16:59:07;;;;;;;8.38;6.35;;;28.20;73.20;;;;;;10501774;28;20047;-64
2021/06/09 17:04:09;;;;;;;9.38;4.85;;;28.20;71.60;;;;;;10483694;28;20502;-64
2021/06/09 17:09:14;;;;;;;14.20;6.28;;;28.30;75.50;;;;;;10501378;28;20040;-67
2021/06/09 17:14:17;;;;;;;7.32;6.63;;;28.20;75.90;;;;;;10501193;28;20040;-67
2021/06/09 17:19:20;;;;;;;8.35;6.47;;;27.80;72.40;;;;;;10501043;28;20040;-67
2021/06/09 17:24:22;;;;;;;9.02;6.22;;;27.50;72.30;;;;;;10500726;28;20044;-67
2021/06/09 17:29:24;;;;;;;7.70;6.93;;;27.20;73.70;;;;;;10500312;28;20495;-67
2021/06/09 17:34:26;;;;;;;8.43;6.70;;;27.10;72.40;;;;;;10481791;28;20040;-67
2021/06/09 17:39:28;;;;;;;7.40;5.95;;;26.90;72.40;;;;;;10500113;28;20499;-67
2021/06/09 17:44:30;;;;;;;8.02;4.95;;;26.90;70.90;;;;;;10499733;28;20040;-67
2021/06/09 17:49:32;;;;;;;8.23;3.13;;;26.80;72.70;;;;;;10499785;28;20044;-67
2021/06/09 17:54:34;;;;;;;6.90;3.35;;;26.60;74.10;;;;;;10499969;28;20040;-66
2021/06/09 17:59:37;;;;;;;11.95;2.85;;;26.50;74.00;;;;;;10499583;28;20052;-64
2021/06/09 18:04:40;;;;;;;4.82;2.25;;;26.10;72.80;;;;;;10499118;28;20384;-64
2021/06/09 18:09:43;;;;;;;2.95;2.17;;;26.00;72.70;;;;;;10499334;28;20051;-63
2021/06/09 18:14:45;;;;;;;6.88;2.50;;;25.70;73.30;;;;;;10498807;28;20496;-63
2021/06/09 18:19:47;;;;;;;7.35;2.10;;;25.50;73.10;;;;;;10498646;28;20506;-63
2021/06/09 18:24:48;;;;;;;1.65;1.55;;;25.40;72.40;;;;;;10498463;28;20047;-64
2021/06/09 18:29:50;;;;;;;2.88;1.27;;;25.10;70.60;;;;;;10480939;28;20040;-63
2021/06/09 18:34:52;;;;;;;1.33;0.80;;;24.80;68.60;;;;;;10498710;28;20041;-63
2021/06/09 18:39:55;;;;;;;2.20;0.73;;;24.70;68.60;;;;;;10498039;28;20498;-63
2021/06/09 18:44:57;;;;;;;0.82;0.73;;;24.60;67.00;;;;;;10498009;28;20051;-63
2021/06/09 18:49:59;;;;;;;2.85;1.05;;;24.50;68.00;;;;;;10497856;28;20400;-63
2021/06/09 18:55:05;;;;;;;2.20;0.70;;;24.50;69.00;;;;;;10498319;28;20048;-63
2021/06/09 19:00:25;;;;;;;3.63;0.73;;;24.20;67.50;;;;;;10497979;28;20041;-63
2021/06/09 19:05:33;;;;;;;3.88;0.75;;;24.10;70.40;;;;;;10498397;28;20040;-63
2021/06/09 19:10:39;;;;;;;1.08;0.60;;;23.90;68.10;;;;;;10497396;28;20040;-64
2021/06/09 19:15:41;;;;;;;1.27;0.73;;;23.80;67.70;;;;;;10496182;28;20491;-63
2021/06/09 19:20:44;;;;;;;0.68;0.47;;;23.60;70.00;;;;;;10497850;28;20084;-64
2021/06/09 19:25:45;;;;;;;3.67;0.95;;;23.50;69.50;;;;;;10497175;28;20040;-62
2021/06/09 19:30:48;;;;;;;2.97;0.70;;;23.30;69.00;;;;;;10497062;28;20495;-63
2021/06/09 19:35:50;;;;;;;1.58;0.90;;;23.20;70.50;;;;;;10497077;28;20044;-63
2021/06/09 19:40:55;;;;;;;1.95;0.70;;;23.20;71.00;;;;;;10497372;28;20040;-63
2021/06/09 19:45:57;;;;;;;0.73;0.73;;;23.00;69.90;;;;;;10496891;28;20049;-63
2021/06/09 19:50:59;;;;;;;1.10;0.60;;;22.90;71.60;;;;;;10496950;28;20044;-63
2021/06/09 19:56:01;;;;;;;2.50;0.80;;;22.80;71.60;;;;;;10500758;28;20044;-63
2021/06/09 20:01:03;;;;;;;2.05;0.93;;;22.60;71.50;;;;;;10504106;28;20068;-62
2021/06/09 20:06:05;;;;;;;2.00;0.75;;;22.40;72.50;;;;;;10502585;28;20044;-63
2021/06/09 20:11:07;;;;;;;0.60;0.57;;;22.20;71.50;;;;;;10503905;28;20051;-62
2021/06/09 20:16:09;;;;;;;0.82;0.50;;;22.10;73.40;;;;;;10503608;28;20463;-63
2021/06/09 20:21:11;;;;;;;1.88;0.65;;;21.90;72.50;;;;;;10503605;28;20128;-62
2021/06/09 20:31:34;;;;;;;2.17;0.60;;;21.60;73.70;;;;;;10502886;28;20406;-63
2021/06/09 20:36:36;;;;;;;0.82;0.70;;;21.50;75.10;;;;;;10502702;28;20044;-62
2021/06/09 20:41:38;;;;;;;2.78;0.65;;;21.30;76.00;;;;;;10502306;28;20040;-63
2021/06/09 20:46:41;;;;;;;3.70;0.82;;;21.10;75.00;;;;;;10502327;28;20047;-63
2021/06/09 20:51:43;;;;;;;1.05;0.57;;;20.90;76.50;;;;;;10502944;28;20040;-62
2021/06/09 20:56:46;;;;;;;1.98;1.00;;;20.70;76.60;;;;;;10501979;28;20041;-63
2021/06/09 21:01:48;;;;;;;0.77;0.68;;;20.70;76.80;;;;;;10502089;28;20036;-63
2021/06/09 21:06:50;;;;;;;5.85;1.25;;;20.70;77.30;;;;;;10500720;28;20156;-62
2021/06/09 21:11:53;;;;;;;1.15;0.80;;;20.30;78.50;;;;;;10483445;28;20044;-62
2021/06/09 21:16:55;;;;;;;2.40;0.82;;;20.30;78.60;;;;;;10499527;28;20056;-62
2021/06/09 21:21:57;;;;;;;0.73;0.73;;;20.20;79.10;;;;;;10501035;28;20040;-62
2021/06/09 21:26:59;;;;;;;5.45;1.00;;;20.10;79.90;;;;;;10501108;28;20047;-62
2021/06/09 21:32:01;;;;;;;2.15;0.88;;;19.90;80.90;;;;;;10500782;28;20047;-62
2021/06/09 21:37:03;;;;;;;2.53;0.73;;;19.80;81.20;;;;;;10499813;28;20044;-62
2021/06/09 21:42:09;;;;;;;1.10;1.00;;;19.70;81.20;;;;;;10499667;28;20488;-63
2021/06/09 21:47:11;;;;;;;1.35;0.93;;;19.70;82.20;;;;;;10500223;28;20051;-62
2021/06/09 21:52:13;;;;;;;2.15;0.90;;;19.50;81.90;;;;;;10500111;28;20127;-62
2021/06/09 21:57:15;;;;;;;0.95;0.95;;;19.40;83.90;;;;;;10499570;28;20123;-62
2021/06/09 22:02:18;;;;;;;2.15;1.33;;;19.20;83.10;;;;;;10499618;28;20060;-62
2021/06/09 22:07:20;;;;;;;2.35;1.17;;;19.30;82.70;;;;;;10499263;28;20051;-62
2021/06/09 22:12:22;;;;;;;1.38;1.10;;;19.10;83.70;;;;;;10498522;28;20042;-63
2021/06/09 22:17:24;;;;;;;2.67;1.73;;;19.00;84.40;;;;;;10498497;28;20055;-62
2021/06/09 22:22:27;;;;;;;1.95;1.15;;;18.90;84.20;;;;;;10498629;28;20055;-62
2021/06/09 22:27:29;;;;;;;1.90;1.67;;;18.90;84.80;;;;;;10498587;28;20040;-62
2021/06/09 22:32:33;;;;;;;1.27;1.00;;;18.90;84.80;;;;;;10498709;28;20044;-62
2021/06/09 22:37:35;;;;;;;1.00;0.98;;;18.90;84.90;;;;;;10498502;28;20135;-61
2021/06/09 22:42:38;;;;;;;1.45;1.10;;;18.70;84.60;;;;;;10496889;28;20390;-61
2021/06/09 22:47:40;;;;;;;6.00;1.27;;;18.60;86.10;;;;;;10497886;28;20048;-61
2021/06/09 22:52:42;;;;;;;1.85;0.90;;;18.40;87.70;;;;;;10498190;28;20041;-62
2021/06/09 22:57:44;;;;;;;1.17;0.88;;;18.30;87.60;;;;;;10498012;28;20048;-62
2021/06/09 23:02:47;;;;;;;3.38;1.08;;;18.10;87.70;;;;;;10497487;28;20045;-62
2021/06/09 23:07:49;;;;;;;1.52;1.42;;;18.10;89.10;;;;;;10497654;28;20499;-62
2021/06/09 23:12:52;;;;;;;1.73;1.20;;;17.90;89.70;;;;;;10497551;28;20048;-61
2021/06/09 23:17:56;;;;;;;2.75;1.55;;;17.70;89.80;;;;;;10497063;28;20515;-62
2021/06/09 23:22:58;;;;;;;2.63;1.75;;;17.90;89.40;;;;;;10497598;28;20045;-63
2021/06/09 23:28:00;;;;;;;1.70;1.40;;;17.60;90.10;;;;;;10497373;28;20049;-63
2021/06/09 23:33:02;;;;;;;2.25;1.50;;;17.50;90.90;;;;;;10504001;28;20051;-62
2021/06/09 23:38:03;;;;;;;1.48;1.30;;;17.40;91.50;;;;;;10504886;28;20380;-62
2021/06/09 23:43:05;;;;;;;3.15;1.38;;;17.30;90.80;;;;;;10504777;28;20047;-63
2021/06/09 23:48:11;;;;;;;2.15;1.27;;;17.20;91.10;;;;;;10504498;28;20396;-62
2021/06/09 23:53:13;;;;;;;1.50;1.40;;;17.10;92.20;;;;;;10504752;28;20048;-64
2021/06/09 23:58:16;;;;;;;1.35;1.20;;;17.20;92.00;;;;;;10504254;28;20076;-62
